Time,TemperatureF,DewpointF,PressureIn,WindDirection,WindDirectionDegrees,WindSpeedMPH,WindSpeedGustMPH,Humidity,HourlyPrecipIn,Conditions,Clouds,dailyrainin,SoftwareType,DateUTC
2013-05-09 00:01:00,52.2,48.0,29.57,SW,225,2.0,2.0,86,0.00,,,0.00,meteohub,2013-05-09 07:01:00,
2013-05-09 00:06:00,52.2,48.0,29.57,SW,225,2.0,2.0,86,0.00,,,0.00,meteohub,2013-05-09 07:06:00,
2013-05-09 00:11:00,52.3,48.2,29.57,SW,225,3.0,4.0,86,0.00,,,0.00,meteohub,2013-05-09 07:11:00,
2013-05-09 00:16:00,52.5,48.4,29.57,SW,225,2.0,4.0,86,0.00,,,0.00,meteohub,2013-05-09 07:16:00,
2013-05-09 00:21:00,52.2,48.0,29.57,SW,225,0.0,4.0,86,0.00,,,0.00,meteohub,2013-05-09 07:21:00,
2013-05-09 00:26:00,52.2,48.4,29.58,SW,225,2.0,4.0,87,0.00,,,0.00,meteohub,2013-05-09 07:26:00,
2013-05-09 00:32:00,52.0,47.8,29.58,SW,225,0.0,2.0,86,0.00,,,0.00,meteohub,2013-05-09 07:32:00,
2013-05-09 00:37:00,51.8,47.7,29.58,SW,225,0.0,2.0,86,0.00,,,0.00,meteohub,2013-05-09 07:37:00,
2013-05-09 00:42:00,51.4,47.7,29.58,SW,225,0.0,2.0,87,0.00,,,0.00,meteohub,2013-05-09 07:42:00,
2013-05-09 00:47:00,51.3,47.5,29.58,SW,225,0.0,1.0,87,0.00,,,0.00,meteohub,2013-05-09 07:47:00,
2013-05-09 00:52:00,51.1,47.7,29.58,SW,225,2.0,2.0,88,0.00,,,0.00,meteohub,2013-05-09 07:52:00,
2013-05-09 00:57:00,51.1,48.0,29.58,SW,225,2.0,2.0,89,0.00,,,0.00,meteohub,2013-05-09 07:57:00,
2013-05-09 01:02:00,50.9,48.0,29.59,SW,225,2.0,2.0,90,0.00,,,0.00,meteohub,2013-05-09 08:02:00,
2013-05-09 01:07:00,50.9,47.8,29.59,SW,225,0.0,2.0,89,0.00,,,0.00,meteohub,2013-05-09 08:07:00,
2013-05-09 01:12:00,50.9,47.8,29.59,NE,45,0.0,2.0,89,0.00,,,0.00,meteohub,2013-05-09 08:12:00,
2013-05-09 01:17:00,50.9,48.0,29.59,North,0,0.0,2.0,90,0.00,,,0.00,meteohub,2013-05-09 08:17:00,
2013-05-09 01:22:00,50.7,47.8,29.59,North,0,0.0,1.0,90,0.00,,,0.00,meteohub,2013-05-09 08:22:00,
2013-05-09 01:27:00,50.5,47.7,29.59,North,0,0.0,0.0,90,0.00,,,0.00,meteohub,2013-05-09 08:27:00,
2013-05-09 01:32:00,50.2,47.3,29.59,North,0,0.0,0.0,90,0.00,,,0.00,meteohub,2013-05-09 08:32:00,
2013-05-09 01:37:00,50.0,47.1,29.60,North,0,0.0,0.0,90,0.00,,,0.00,meteohub,2013-05-09 08:37:00,
2013-05-09 01:42:00,49.6,46.8,29.60,North,0,0.0,0.0,90,0.00,,,0.00,meteohub,2013-05-09 08:42:00,
2013-05-09 01:47:00,49.5,46.6,29.60,North,0,0.0,0.0,90,0.00,,,0.00,meteohub,2013-05-09 08:47:00,
2013-05-09 01:53:00,49.5,46.9,29.60,North,0,0.0,0.0,91,0.00,,,0.00,meteohub,2013-05-09 08:53:00,
2013-05-09 01:58:00,49.1,46.9,29.60,SW,225,0.0,0.0,92,0.00,,,0.00,meteohub,2013-05-09 08:58:00,
2013-05-09 02:03:00,48.7,46.6,29.60,SW,225,0.0,2.0,92,0.00,,,0.00,meteohub,2013-05-09 09:03:00,
2013-05-09 02:08:00,48.7,46.6,29.60,SW,225,0.0,2.0,92,0.00,,,0.00,meteohub,2013-05-09 09:08:00,
2013-05-09 02:14:00,48.7,46.8,29.60,SW,225,0.0,2.0,93,0.00,,,0.00,meteohub,2013-05-09 09:14:00,
2013-05-09 02:19:00,48.6,46.6,29.60,SW,225,0.0,1.0,93,0.00,,,0.00,meteohub,2013-05-09 09:19:00,
2013-05-09 02:24:00,48.6,46.6,29.60,SW,225,1.0,0.0,93,0.00,,,0.00,meteohub,2013-05-09 09:24:00,
2013-05-09 02:29:00,48.6,46.6,29.60,SW,225,1.0,2.0,93,0.00,,,0.00,meteohub,2013-05-09 09:29:00,
2013-05-09 02:34:00,48.4,46.4,29.60,SW,225,2.0,2.0,93,0.00,,,0.00,meteohub,2013-05-09 09:34:00,
2013-05-09 02:39:00,48.4,46.4,29.60,SW,225,1.0,2.0,93,0.00,,,0.00,meteohub,2013-05-09 09:39:00,
2013-05-09 02:44:00,48.2,46.6,29.60,SW,225,0.0,2.0,94,0.00,,,0.00,meteohub,2013-05-09 09:44:00,
2013-05-09 02:49:00,48.2,46.6,29.60,SW,225,1.0,2.0,94,0.00,,,0.00,meteohub,2013-05-09 09:49:00,
2013-05-09 02:54:00,48.0,46.4,29.60,SW,225,2.0,2.0,94,0.00,,,0.00,meteohub,2013-05-09 09:54:00,
2013-05-09 02:59:00,48.2,46.8,29.60,SW,225,2.0,2.0,95,0.00,,,0.00,meteohub,2013-05-09 09:59:00,
2013-05-09 03:04:00,48.2,46.8,29.60,SW,225,3.0,3.0,95,0.00,,,0.00,meteohub,2013-05-09 10:04:00,
2013-05-09 03:09:00,48.0,46.6,29.60,SW,225,2.0,3.0,95,0.00,,,0.00,meteohub,2013-05-09 10:09:00,
2013-05-09 03:14:00,48.0,46.9,29.60,SW,225,3.0,3.0,96,0.00,,,0.00,meteohub,2013-05-09 10:14:00,
2013-05-09 03:19:00,48.0,46.9,29.60,SW,225,2.0,3.0,96,0.00,,,0.00,meteohub,2013-05-09 10:19:00,
2013-05-09 03:24:00,48.0,46.9,29.60,SW,225,2.0,3.0,96,0.00,,,0.00,meteohub,2013-05-09 10:24:00,
2013-05-09 03:29:00,48.0,46.9,29.60,SW,225,2.0,3.0,96,0.00,,,0.00,meteohub,2013-05-09 10:29:00,
2013-05-09 03:34:00,48.2,47.1,29.60,SW,225,0.0,3.0,96,0.00,,,0.00,meteohub,2013-05-09 10:34:00,
2013-05-09 03:40:00,48.4,47.3,29.60,SW,225,3.0,3.0,96,0.00,,,0.00,meteohub,2013-05-09 10:40:00,
2013-05-09 03:45:00,48.7,47.7,29.60,SW,225,0.0,3.0,96,0.00,,,0.00,meteohub,2013-05-09 10:45:00,
2013-05-09 03:50:00,48.6,47.1,29.60,NE,45,0.0,3.0,95,0.00,,,0.00,meteohub,2013-05-09 10:50:00,
2013-05-09 03:55:00,48.4,46.9,29.60,NE,45,0.0,3.0,95,0.00,,,0.00,meteohub,2013-05-09 10:55:00,
2013-05-09 04:00:00,48.2,46.8,29.60,NE,45,0.0,2.0,95,0.00,,,0.00,meteohub,2013-05-09 11:00:00,
2013-05-09 04:05:00,47.8,46.4,29.60,NE,45,0.0,0.0,95,0.00,,,0.00,meteohub,2013-05-09 11:05:00,
2013-05-09 04:10:00,47.7,46.2,29.60,NE,45,0.0,0.0,95,0.00,,,0.00,meteohub,2013-05-09 11:10:00,
2013-05-09 04:15:00,47.7,46.6,29.60,NE,45,0.0,1.0,96,0.00,,,0.00,meteohub,2013-05-09 11:15:00,
2013-05-09 04:20:00,47.7,46.6,29.60,SW,225,2.0,2.0,96,0.00,,,0.00,meteohub,2013-05-09 11:20:00,
2013-05-09 04:25:00,47.7,46.6,29.60,SW,225,2.0,2.0,96,0.00,,,0.00,meteohub,2013-05-09 11:25:00,
2013-05-09 04:30:00,47.7,46.6,29.60,SW,225,1.0,3.0,96,0.00,,,0.00,meteohub,2013-05-09 11:30:00,
2013-05-09 04:35:00,47.7,46.6,29.60,SW,225,0.0,3.0,96,0.00,,,0.00,meteohub,2013-05-09 11:35:00,
2013-05-09 04:40:00,47.7,46.6,29.60,SE,135,0.0,2.0,96,0.00,,,0.00,meteohub,2013-05-09 11:40:00,
2013-05-09 04:45:00,47.5,46.4,29.61,SE,135,0.0,2.0,96,0.00,,,0.00,meteohub,2013-05-09 11:45:00,
2013-05-09 04:50:00,47.3,46.2,29.61,South,180,0.0,0.0,96,0.00,,,0.00,meteohub,2013-05-09 11:50:00,
2013-05-09 04:55:00,47.3,46.6,29.61,South,180,0.0,0.0,97,0.00,,,0.00,meteohub,2013-05-09 11:55:00,
2013-05-09 05:00:00,47.5,46.8,29.61,SW,225,1.0,2.0,97,0.00,,,0.00,meteohub,2013-05-09 12:00:00,
2013-05-09 05:05:00,47.5,46.9,29.61,SW,225,0.0,2.0,98,0.00,,,0.00,meteohub,2013-05-09 12:05:00,
2013-05-09 05:10:00,47.3,46.6,29.60,SW,225,0.0,2.0,97,0.00,,,0.00,meteohub,2013-05-09 12:10:00,
2013-05-09 05:16:00,46.9,46.2,29.61,SW,225,0.0,2.0,97,0.00,,,0.00,meteohub,2013-05-09 12:16:00,
2013-05-09 05:21:00,46.8,46.0,29.60,SW,225,0.0,0.0,97,0.00,,,0.00,meteohub,2013-05-09 12:21:00,
2013-05-09 05:26:00,46.8,46.0,29.60,SW,225,0.0,0.0,97,0.00,,,0.00,meteohub,2013-05-09 12:26:00,
2013-05-09 05:31:00,46.8,46.0,29.61,SW,225,0.0,0.0,97,0.00,,,0.00,meteohub,2013-05-09 12:31:00,
2013-05-09 05:36:00,46.8,46.0,29.61,NE,45,2.0,2.0,97,0.00,,,0.00,meteohub,2013-05-09 12:36:00,
2013-05-09 05:41:00,46.8,46.2,29.61,NE,45,0.0,2.0,98,0.00,,,0.00,meteohub,2013-05-09 12:41:00,
2013-05-09 05:46:00,46.8,46.2,29.61,NE,45,0.0,2.0,98,0.00,,,0.00,meteohub,2013-05-09 12:46:00,
2013-05-09 05:51:00,46.6,46.0,29.61,NE,45,0.0,2.0,98,0.00,,,0.00,meteohub,2013-05-09 12:51:00,
2013-05-09 05:56:00,46.4,45.9,29.61,NE,45,0.0,0.0,98,0.00,,,0.00,meteohub,2013-05-09 12:56:00,
2013-05-09 06:01:00,46.2,45.7,29.61,NE,45,0.0,0.0,98,0.00,,,0.00,meteohub,2013-05-09 13:01:00,
2013-05-09 06:06:00,46.2,45.7,29.61,NE,45,0.0,0.0,98,0.00,,,0.00,meteohub,2013-05-09 13:06:00,
2013-05-09 06:11:00,46.2,45.7,29.62,NE,45,0.0,0.0,98,0.00,,,0.00,meteohub,2013-05-09 13:11:00,
2013-05-09 06:16:00,46.4,45.9,29.62,NE,45,0.0,0.0,98,0.00,,,0.00,meteohub,2013-05-09 13:16:00,
2013-05-09 06:21:00,46.4,45.9,29.62,NE,45,0.0,0.0,98,0.00,,,0.00,meteohub,2013-05-09 13:21:00,
2013-05-09 06:26:00,46.4,45.9,29.62,NE,45,0.0,0.0,98,0.00,,,0.00,meteohub,2013-05-09 13:26:00,
2013-05-09 06:31:00,46.6,46.0,29.61,SW,225,2.0,0.0,98,0.00,,,0.00,meteohub,2013-05-09 13:31:00,
2013-05-09 06:36:00,46.8,46.6,29.62,SW,225,2.0,2.0,99,0.00,,,0.00,meteohub,2013-05-09 13:36:00,
2013-05-09 06:41:00,47.1,46.9,29.62,SW,225,2.0,2.0,99,0.00,,,0.00,meteohub,2013-05-09 13:41:00,
2013-05-09 06:46:00,47.7,47.5,29.62,SW,225,2.0,2.0,99,0.00,,,0.00,meteohub,2013-05-09 13:46:00,
2013-05-09 06:51:00,47.8,47.7,29.62,SW,225,2.0,2.0,99,0.00,,,0.00,meteohub,2013-05-09 13:51:00,
2013-05-09 06:57:00,47.8,47.7,29.62,SW,225,0.0,2.0,99,0.00,,,0.00,meteohub,2013-05-09 13:57:00,
2013-05-09 07:02:00,48.2,48.0,29.62,SW,225,0.0,2.0,99,0.00,,,0.00,meteohub,2013-05-09 14:02:00,
2013-05-09 07:07:00,48.6,48.4,29.63,SW,225,1.0,2.0,99,0.00,,,0.00,meteohub,2013-05-09 14:07:00,
2013-05-09 07:12:00,48.9,48.7,29.63,SW,225,0.0,2.0,99,0.00,,,0.00,meteohub,2013-05-09 14:12:00,
2013-05-09 07:17:00,49.3,49.1,29.62,South,180,1.0,2.0,99,0.00,,,0.00,meteohub,2013-05-09 14:17:00,
2013-05-09 07:22:00,49.8,49.3,29.62,South,180,0.0,1.0,98,0.00,,,0.00,meteohub,2013-05-09 14:22:00,
2013-05-09 07:27:00,50.2,49.6,29.62,South,180,0.0,2.0,98,0.00,,,0.00,meteohub,2013-05-09 14:27:00,
2013-05-09 07:32:00,50.4,49.5,29.62,SW,225,2.0,2.0,97,0.00,,,0.00,meteohub,2013-05-09 14:32:00,
2013-05-09 07:37:00,50.5,49.6,29.62,South,180,1.0,2.0,97,0.00,,,0.00,meteohub,2013-05-09 14:37:00,
2013-05-09 07:42:00,50.7,49.6,29.62,SW,225,2.0,2.0,96,0.00,,,0.00,meteohub,2013-05-09 14:42:00,
2013-05-09 07:47:00,51.3,49.8,29.62,SW,225,2.0,2.0,95,0.00,,,0.00,meteohub,2013-05-09 14:47:00,
2013-05-09 07:52:00,52.7,51.1,29.62,SW,225,2.0,3.0,94,0.00,,,0.00,meteohub,2013-05-09 14:52:00,
2013-05-09 07:57:00,54.0,51.1,29.62,SW,225,2.0,3.0,90,0.00,,,0.00,meteohub,2013-05-09 14:57:00,
2013-05-09 08:02:00,55.6,52.2,29.62,South,180,3.0,4.0,88,0.00,,,0.00,meteohub,2013-05-09 15:02:00,
2013-05-09 08:07:00,57.4,53.6,29.62,SW,225,2.0,4.0,87,0.00,,,0.00,meteohub,2013-05-09 15:07:00,
2013-05-09 08:12:00,58.6,53.8,29.62,West,270,2.0,4.0,84,0.00,,,0.00,meteohub,2013-05-09 15:12:00,
2013-05-09 08:17:00,59.4,53.2,29.62,SW,225,2.0,3.0,80,0.00,,,0.00,meteohub,2013-05-09 15:17:00,
2013-05-09 08:22:00,60.3,54.3,29.62,SW,225,2.0,3.0,81,0.00,,,0.00,meteohub,2013-05-09 15:22:00,
2013-05-09 08:27:00,61.5,54.7,29.62,South,180,2.0,2.0,78,0.00,,,0.00,meteohub,2013-05-09 15:27:00,
2013-05-09 08:32:00,62.1,54.7,29.62,SW,225,1.0,2.0,77,0.00,,,0.00,meteohub,2013-05-09 15:32:00,
2013-05-09 08:37:00,63.1,53.6,29.62,East,90,4.0,4.0,71,0.00,,,0.00,meteohub,2013-05-09 15:37:00,
2013-05-09 08:42:00,63.0,53.8,29.62,North,0,2.0,4.0,72,0.00,,,0.00,meteohub,2013-05-09 15:42:00,
2013-05-09 08:47:00,63.5,53.1,29.62,East,90,4.0,4.0,69,0.00,,,0.00,meteohub,2013-05-09 15:47:00,
2013-05-09 08:52:00,62.8,52.5,29.62,NE,45,4.0,4.0,69,0.00,,,0.00,meteohub,2013-05-09 15:52:00,
2013-05-09 08:57:00,63.3,53.8,29.62,NE,45,1.0,4.0,71,0.00,,,0.00,meteohub,2013-05-09 15:57:00,
2013-05-09 09:02:00,64.4,53.2,29.62,East,90,3.0,4.0,67,0.00,,,0.00,meteohub,2013-05-09 16:02:00,
2013-05-09 09:07:00,64.6,52.9,29.62,WSW,248,3.0,4.0,66,0.00,,,0.00,meteohub,2013-05-09 16:07:00,
2013-05-09 09:12:00,64.0,52.0,29.62,North,0,3.0,3.0,65,0.00,,,0.00,meteohub,2013-05-09 16:12:00,
2013-05-09 09:17:00,63.9,52.7,29.62,North,0,3.0,5.0,67,0.00,,,0.00,meteohub,2013-05-09 16:17:00,
2013-05-09 09:22:00,64.4,52.9,29.62,NE,45,3.0,5.0,66,0.00,,,0.00,meteohub,2013-05-09 16:22:00,
2013-05-09 09:27:00,64.4,52.9,29.62,North,0,4.0,5.0,66,0.00,,,0.00,meteohub,2013-05-09 16:27:00,
2013-05-09 09:32:00,64.4,52.9,29.62,East,90,4.0,4.0,66,0.00,,,0.00,meteohub,2013-05-09 16:32:00,
2013-05-09 09:37:00,64.9,54.1,29.62,South,180,2.0,4.0,68,0.00,,,0.00,meteohub,2013-05-09 16:37:00,
2013-05-09 09:42:00,66.6,54.9,29.62,NE,45,2.0,4.0,66,0.00,,,0.00,meteohub,2013-05-09 16:42:00,
2013-05-09 09:47:00,66.2,54.5,29.62,SW,225,2.0,4.0,66,0.00,,,0.00,meteohub,2013-05-09 16:47:00,
2013-05-09 09:52:00,67.3,54.7,29.62,NE,45,3.0,4.0,64,0.00,,,0.00,meteohub,2013-05-09 16:52:00,
2013-05-09 09:57:00,67.8,54.0,29.62,NW,315,3.0,4.0,61,0.00,,,0.00,meteohub,2013-05-09 16:57:00,
2013-05-09 10:02:00,68.5,54.5,29.62,NE,45,2.0,3.0,61,0.00,,,0.00,meteohub,2013-05-09 17:02:00,
2013-05-09 10:07:00,69.1,54.1,29.62,NE,45,3.0,4.0,59,0.00,,,0.00,meteohub,2013-05-09 17:07:00,
2013-05-09 10:12:00,69.3,55.8,29.62,SE,135,3.0,4.0,62,0.00,,,0.00,meteohub,2013-05-09 17:12:00,
2013-05-09 10:17:00,70.3,56.7,29.62,South,180,2.0,4.0,62,0.00,,,0.00,meteohub,2013-05-09 17:17:00,
2013-05-09 10:22:00,70.0,55.4,29.61,North,0,2.0,4.0,60,0.00,,,0.00,meteohub,2013-05-09 17:22:00,
2013-05-09 10:27:00,70.2,54.1,29.61,North,0,4.0,4.0,57,0.00,,,0.00,meteohub,2013-05-09 17:27:00,
2013-05-09 10:32:00,69.4,54.0,29.61,NE,45,4.0,4.0,58,0.00,,,0.00,meteohub,2013-05-09 17:32:00,
2013-05-09 10:37:00,68.7,54.7,29.61,NE,45,6.0,6.0,61,0.00,,,0.00,meteohub,2013-05-09 17:37:00,
2013-05-09 10:42:00,69.3,55.8,29.61,South,180,2.0,6.0,62,0.00,,,0.00,meteohub,2013-05-09 17:42:00,
2013-05-09 10:47:00,70.3,55.4,29.61,NE,45,5.0,6.0,59,0.00,,,0.00,meteohub,2013-05-09 17:47:00,
2013-05-09 10:52:00,70.3,55.8,29.60,SE,135,2.0,6.0,60,0.00,,,0.00,meteohub,2013-05-09 17:52:00,
2013-05-09 10:57:00,71.4,55.9,29.61,NE,45,4.0,5.0,58,0.00,,,0.00,meteohub,2013-05-09 17:57:00,
2013-05-09 11:02:00,71.6,54.5,29.61,North,0,4.0,5.0,55,0.00,,,0.00,meteohub,2013-05-09 18:02:00,
2013-05-09 11:07:00,71.6,55.0,29.61,South,180,3.0,4.0,56,0.00,,,0.00,meteohub,2013-05-09 18:07:00,
2013-05-09 11:12:00,71.6,54.5,29.61,NE,45,6.0,6.0,55,0.00,,,0.00,meteohub,2013-05-09 18:12:00,
2013-05-09 11:17:00,70.9,54.9,29.61,East,90,4.0,7.0,57,0.00,,,0.00,meteohub,2013-05-09 18:17:00,
2013-05-09 11:22:00,72.0,56.3,29.61,NE,45,2.0,7.0,58,0.00,,,0.00,meteohub,2013-05-09 18:22:00,
2013-05-09 11:27:00,73.2,56.7,29.61,East,90,4.0,7.0,56,0.00,,,0.00,meteohub,2013-05-09 18:27:00,
2013-05-09 11:32:00,73.2,55.6,29.61,East,90,3.0,5.0,54,0.00,,,0.00,meteohub,2013-05-09 18:32:00,
2013-05-09 11:37:00,73.4,57.7,29.61,SE,135,2.0,5.0,58,0.00,,,0.00,meteohub,2013-05-09 18:37:00,
2013-05-09 11:42:00,73.8,56.1,29.61,NE,45,4.0,5.0,54,0.00,,,0.00,meteohub,2013-05-09 18:42:00,
2013-05-09 11:47:00,74.5,57.7,29.61,NE,45,2.0,6.0,56,0.00,,,0.00,meteohub,2013-05-09 18:47:00,
2013-05-09 11:52:00,74.8,56.5,29.61,East,90,2.0,6.0,53,0.00,,,0.00,meteohub,2013-05-09 18:52:00,
2013-05-09 11:57:00,74.7,56.5,29.60,SW,225,4.0,6.0,53,0.00,,,0.00,meteohub,2013-05-09 18:57:00,
2013-05-09 12:02:00,74.5,57.2,29.60,East,90,4.0,4.0,55,0.00,,,0.00,meteohub,2013-05-09 19:02:00,
2013-05-09 12:07:00,75.4,57.6,29.60,East,90,6.0,6.0,54,0.00,,,0.00,meteohub,2013-05-09 19:07:00,
2013-05-09 12:12:00,75.0,56.7,29.60,NNE,23,4.0,6.0,53,0.00,,,0.00,meteohub,2013-05-09 19:12:00,
2013-05-09 12:17:00,75.9,58.6,29.60,West,270,2.0,6.0,55,0.00,,,0.00,meteohub,2013-05-09 19:17:00,
2013-05-09 12:22:00,76.8,57.9,29.60,NE,45,6.0,6.0,52,0.00,,,0.00,meteohub,2013-05-09 19:22:00,
2013-05-09 12:27:00,75.6,58.8,29.60,South,180,3.0,6.0,56,0.00,,,0.00,meteohub,2013-05-09 19:27:00,
2013-05-09 12:32:00,75.9,58.6,29.60,SW,225,6.0,8.0,55,0.00,,,0.00,meteohub,2013-05-09 19:32:00,
2013-05-09 12:37:00,76.1,60.3,29.60,NE,45,2.0,8.0,58,0.00,,,0.00,meteohub,2013-05-09 19:37:00,
2013-05-09 12:42:00,78.1,59.5,29.59,SW,225,2.0,6.0,53,0.00,,,0.00,meteohub,2013-05-09 19:42:00,
2013-05-09 12:47:00,78.6,57.9,29.60,NE,45,3.0,6.0,49,0.00,,,0.00,meteohub,2013-05-09 19:47:00,
2013-05-09 12:52:00,79.0,57.0,29.59,East,90,6.0,6.0,47,0.00,,,0.00,meteohub,2013-05-09 19:52:00,
2013-05-09 12:57:00,77.4,56.7,29.59,West,270,2.0,6.0,49,0.00,,,0.00,meteohub,2013-05-09 19:57:00,
2013-05-09 13:02:00,77.7,59.2,29.59,SW,225,2.0,6.0,53,0.00,,,0.00,meteohub,2013-05-09 20:02:00,
2013-05-09 13:07:00,79.0,59.4,29.59,East,90,2.0,6.0,51,0.00,,,0.00,meteohub,2013-05-09 20:07:00,
2013-05-09 13:12:00,79.2,54.7,29.59,East,90,4.0,6.0,43,0.00,,,0.00,meteohub,2013-05-09 20:12:00,
2013-05-09 13:17:00,78.8,54.5,29.58,NE,45,4.0,7.0,43,0.00,,,0.00,meteohub,2013-05-09 20:17:00,
2013-05-09 13:22:00,79.7,54.5,29.58,North,0,4.0,7.0,42,0.00,,,0.00,meteohub,2013-05-09 20:22:00,
2013-05-09 13:27:00,80.8,53.6,29.58,North,0,4.0,8.0,39,0.00,,,0.00,meteohub,2013-05-09 20:27:00,
2013-05-09 13:32:00,81.0,52.9,29.58,North,0,4.0,8.0,38,0.00,,,0.00,meteohub,2013-05-09 20:32:00,
2013-05-09 13:37:00,81.0,51.4,29.57,NE,45,7.0,8.0,36,0.00,,,0.00,meteohub,2013-05-09 20:37:00,
2013-05-09 13:42:00,81.1,50.9,29.58,NE,45,4.0,8.0,35,0.00,,,0.00,meteohub,2013-05-09 20:42:00,
2013-05-09 13:47:00,81.5,52.0,29.57,NE,45,5.0,8.0,36,0.00,,,0.00,meteohub,2013-05-09 20:47:00,
2013-05-09 13:52:00,81.5,52.0,29.57,East,90,4.0,8.0,36,0.00,,,0.00,meteohub,2013-05-09 20:52:00,
2013-05-09 13:57:00,82.4,49.6,29.57,NE,45,5.0,8.0,32,0.00,,,0.00,meteohub,2013-05-09 20:57:00,
2013-05-09 14:02:00,83.7,50.7,29.57,NE,45,4.0,8.0,32,0.00,,,0.00,meteohub,2013-05-09 21:02:00,
2013-05-09 14:07:00,84.0,48.4,29.57,East,90,3.0,6.0,29,0.00,,,0.00,meteohub,2013-05-09 21:07:00,
2013-05-09 14:12:00,83.7,46.2,29.57,East,90,5.0,8.0,27,0.00,,,0.00,meteohub,2013-05-09 21:12:00,
2013-05-09 14:17:00,84.2,46.6,29.57,NE,45,2.0,8.0,27,0.00,,,0.00,meteohub,2013-05-09 21:17:00,
2013-05-09 14:22:00,83.7,50.7,29.57,SW,225,2.0,8.0,32,0.00,,,0.00,meteohub,2013-05-09 21:22:00,
2013-05-09 14:27:00,83.7,46.2,29.57,NE,45,4.0,8.0,27,0.00,,,0.00,meteohub,2013-05-09 21:27:00,
2013-05-09 14:32:00,84.0,47.5,29.57,South,180,3.0,8.0,28,0.00,,,0.00,meteohub,2013-05-09 21:32:00,
2013-05-09 14:37:00,84.7,46.0,29.56,NE,45,9.0,9.0,26,0.00,,,0.00,meteohub,2013-05-09 21:37:00,
2013-05-09 14:42:00,84.4,46.8,29.56,West,270,2.0,9.0,27,0.00,,,0.00,meteohub,2013-05-09 21:42:00,
2013-05-09 14:47:00,85.5,45.7,29.56,North,0,8.0,9.0,25,0.00,,,0.00,meteohub,2013-05-09 21:47:00,
2013-05-09 14:52:00,85.8,48.9,29.56,NE,45,2.0,9.0,28,0.00,,,0.00,meteohub,2013-05-09 21:52:00,
2013-05-09 14:57:00,86.2,46.2,29.56,NE,45,2.0,8.0,25,0.00,,,0.00,meteohub,2013-05-09 21:57:00,
2013-05-09 15:02:00,85.3,45.5,29.56,SW,225,8.0,8.0,25,0.00,,,0.00,meteohub,2013-05-09 22:02:00,
2013-05-09 15:07:00,84.9,47.1,29.55,SW,225,6.0,8.0,27,0.00,,,0.00,meteohub,2013-05-09 22:07:00,
2013-05-09 15:12:00,85.1,47.3,29.55,North,0,3.0,8.0,27,0.00,,,0.00,meteohub,2013-05-09 22:12:00,
2013-05-09 15:17:00,85.6,48.7,29.54,North,0,2.0,8.0,28,0.00,,,0.00,meteohub,2013-05-09 22:17:00,
2013-05-09 15:22:00,86.2,46.2,29.54,North,0,5.0,8.0,25,0.00,,,0.00,meteohub,2013-05-09 22:22:00,
2013-05-09 15:27:00,86.4,46.4,29.54,NE,45,3.0,8.0,25,0.00,,,0.00,meteohub,2013-05-09 22:27:00,
2013-05-09 15:32:00,85.8,45.9,29.54,South,180,7.0,8.0,25,0.00,,,0.00,meteohub,2013-05-09 22:32:00,
2013-05-09 15:37:00,84.9,46.2,29.54,North,0,4.0,9.0,26,0.00,,,0.00,meteohub,2013-05-09 22:37:00,
2013-05-09 15:42:00,86.0,47.1,29.53,NE,45,8.0,9.0,26,0.00,,,0.00,meteohub,2013-05-09 22:42:00,
2013-05-09 15:47:00,85.3,46.6,29.53,NE,45,8.0,9.0,26,0.00,,,0.00,meteohub,2013-05-09 22:47:00,
2013-05-09 15:52:00,85.5,48.6,29.53,NE,45,4.0,8.0,28,0.00,,,0.00,meteohub,2013-05-09 22:52:00,
2013-05-09 15:57:00,86.5,48.6,29.53,NE,45,4.0,8.0,27,0.00,,,0.00,meteohub,2013-05-09 22:57:00,
2013-05-09 16:02:00,86.9,48.9,29.52,East,90,4.0,8.0,27,0.00,,,0.00,meteohub,2013-05-09 23:02:00,
2013-05-09 16:07:00,86.5,48.6,29.52,NE,45,8.0,8.0,27,0.00,,,0.00,meteohub,2013-05-09 23:07:00,
2013-05-09 16:12:00,86.0,50.0,29.52,NE,45,6.0,11.0,29,0.00,,,0.00,meteohub,2013-05-09 23:12:00,
2013-05-09 16:17:00,86.4,50.4,29.52,NE,45,4.0,11.0,29,0.00,,,0.00,meteohub,2013-05-09 23:17:00,
2013-05-09 16:22:00,85.8,51.6,29.52,North,0,4.0,11.0,31,0.00,,,0.00,meteohub,2013-05-09 23:22:00,
2013-05-09 16:27:00,86.2,51.1,29.52,NE,45,6.0,10.0,30,0.00,,,0.00,meteohub,2013-05-09 23:27:00,
2013-05-09 16:32:00,86.5,51.4,29.52,NE,45,4.0,10.0,30,0.00,,,0.00,meteohub,2013-05-09 23:32:00,
2013-05-09 16:37:00,87.3,52.0,29.52,NE,45,3.0,10.0,30,0.00,,,0.00,meteohub,2013-05-09 23:37:00,
2013-05-09 16:42:00,87.6,52.3,29.52,NE,45,4.0,7.0,30,0.00,,,0.00,meteohub,2013-05-09 23:42:00,
2013-05-09 16:47:00,86.7,52.5,29.51,NE,45,4.0,7.0,31,0.00,,,0.00,meteohub,2013-05-09 23:47:00,
2013-05-09 16:52:00,87.6,52.3,29.51,North,0,2.0,9.0,30,0.00,,,0.00,meteohub,2013-05-09 23:52:00,
2013-05-09 16:57:00,86.5,51.4,29.51,North,0,6.0,9.0,30,0.00,,,0.00,meteohub,2013-05-09 23:57:00,
2013-05-09 17:02:00,86.7,53.4,29.51,NE,45,4.0,7.0,32,0.00,,,0.00,meteohub,2013-05-10 00:02:00,
2013-05-09 17:07:00,87.4,52.2,29.51,NE,45,6.0,7.0,30,0.00,,,0.00,meteohub,2013-05-10 00:07:00,
2013-05-09 17:12:00,87.3,53.8,29.51,North,0,2.0,7.0,32,0.00,,,0.00,meteohub,2013-05-10 00:12:00,
2013-05-09 17:17:00,87.4,53.1,29.51,NE,45,5.0,6.0,31,0.00,,,0.00,meteohub,2013-05-10 00:17:00,
2013-05-09 17:22:00,87.8,55.9,29.51,NW,315,2.0,6.0,34,0.00,,,0.00,meteohub,2013-05-10 00:22:00,
2013-05-09 17:27:00,88.7,53.2,29.52,NW,315,4.0,5.0,30,0.00,,,0.00,meteohub,2013-05-10 00:27:00,
2013-05-09 17:32:00,88.7,54.1,29.52,SW,225,2.0,5.0,31,0.00,,,0.00,meteohub,2013-05-10 00:32:00,
2013-05-09 17:37:00,88.2,57.0,29.52,SW,225,4.0,5.0,35,0.00,,,0.00,meteohub,2013-05-10 00:37:00,
2013-05-09 17:42:00,85.3,56.1,29.52,SW,225,9.0,9.0,37,0.00,,,0.00,meteohub,2013-05-10 00:42:00,
2013-05-09 17:47:00,83.5,55.9,29.52,SW,225,7.0,12.0,39,0.00,,,0.00,meteohub,2013-05-10 00:47:00,
2013-05-09 17:52:00,81.7,56.3,29.51,South,180,11.0,12.0,42,0.00,,,0.00,meteohub,2013-05-10 00:52:00,
2013-05-09 17:57:00,81.7,58.3,29.52,SW,225,4.0,13.0,45,0.00,,,0.00,meteohub,2013-05-10 00:57:00,
2013-05-09 18:02:00,82.2,56.8,29.51,NW,315,3.0,13.0,42,0.00,,,0.00,meteohub,2013-05-10 01:02:00,
2013-05-09 18:07:00,81.7,55.8,29.52,SW,225,8.0,13.0,41,0.00,,,0.00,meteohub,2013-05-10 01:07:00,
2013-05-09 18:12:00,82.0,55.9,29.51,SW,225,4.0,8.0,41,0.00,,,0.00,meteohub,2013-05-10 01:12:00,
2013-05-09 18:17:00,82.6,56.5,29.51,South,180,5.0,8.0,41,0.00,,,0.00,meteohub,2013-05-10 01:17:00,
2013-05-09 18:22:00,83.1,56.3,29.51,SW,225,4.0,8.0,40,0.00,,,0.00,meteohub,2013-05-10 01:22:00,
2013-05-09 18:27:00,83.1,58.3,29.51,SW,225,3.0,5.0,43,0.00,,,0.00,meteohub,2013-05-10 01:27:00,
2013-05-09 18:32:00,83.1,56.3,29.51,SW,225,4.0,6.0,40,0.00,,,0.00,meteohub,2013-05-10 01:32:00,
2013-05-09 18:37:00,82.6,55.0,29.51,SW,225,6.0,6.0,39,0.00,,,0.00,meteohub,2013-05-10 01:37:00,
2013-05-09 18:42:00,81.0,55.0,29.51,SW,225,4.0,7.0,41,0.00,,,0.00,meteohub,2013-05-10 01:42:00,
2013-05-09 18:47:00,80.1,54.9,29.51,SW,225,8.0,8.0,42,0.00,,,0.00,meteohub,2013-05-10 01:47:00,
2013-05-09 18:52:00,79.7,56.5,29.51,South,180,4.0,8.0,45,0.00,,,0.00,meteohub,2013-05-10 01:52:00,
2013-05-09 18:57:00,79.3,56.1,29.51,East,90,4.0,8.0,45,0.00,,,0.00,meteohub,2013-05-10 01:57:00,
2013-05-09 19:02:00,78.1,55.0,29.51,South,180,6.0,8.0,45,0.00,,,0.00,meteohub,2013-05-10 02:02:00,
2013-05-09 19:07:00,77.0,55.2,29.51,SW,225,6.0,8.0,47,0.00,,,0.00,meteohub,2013-05-10 02:07:00,
2013-05-09 19:12:00,76.5,55.4,29.51,SW,225,3.0,8.0,48,0.00,,,0.00,meteohub,2013-05-10 02:12:00,
2013-05-09 19:17:00,75.9,55.9,29.51,South,180,2.0,8.0,50,0.00,,,0.00,meteohub,2013-05-10 02:17:00,
2013-05-09 19:22:00,76.1,55.6,29.51,SW,225,2.0,8.0,49,0.00,,,0.00,meteohub,2013-05-10 02:22:00,
2013-05-09 19:27:00,75.9,54.9,29.51,South,180,4.0,4.0,48,0.00,,,0.00,meteohub,2013-05-10 02:27:00,
2013-05-09 19:32:00,75.0,54.5,29.52,SW,225,4.0,5.0,49,0.00,,,0.00,meteohub,2013-05-10 02:32:00,
2013-05-09 19:37:00,74.5,55.2,29.51,South,180,2.0,5.0,51,0.00,,,0.00,meteohub,2013-05-10 02:37:00,
2013-05-09 19:42:00,73.9,54.7,29.52,South,180,3.0,5.0,51,0.00,,,0.00,meteohub,2013-05-10 02:42:00,
2013-05-09 19:47:00,73.4,55.2,29.52,SW,225,2.0,4.0,53,0.00,,,0.00,meteohub,2013-05-10 02:47:00,
2013-05-09 19:52:00,73.0,55.4,29.52,SW,225,2.0,4.0,54,0.00,,,0.00,meteohub,2013-05-10 02:52:00,
2013-05-09 19:57:00,72.3,54.7,29.52,SW,225,1.0,3.0,54,0.00,,,0.00,meteohub,2013-05-10 02:57:00,
2013-05-09 20:02:00,71.8,54.3,29.52,SW,225,3.0,3.0,54,0.00,,,0.00,meteohub,2013-05-10 03:02:00,
2013-05-09 20:07:00,71.4,54.5,29.53,SW,225,0.0,3.0,55,0.00,,,0.00,meteohub,2013-05-10 03:07:00,
2013-05-09 20:12:00,70.7,54.3,29.53,West,270,2.0,3.0,56,0.00,,,0.00,meteohub,2013-05-10 03:12:00,
2013-05-09 20:17:00,70.0,54.5,29.53,SW,225,2.0,3.0,58,0.00,,,0.00,meteohub,2013-05-10 03:17:00,
2013-05-09 20:22:00,69.4,54.5,29.53,SW,225,2.0,3.0,59,0.00,,,0.00,meteohub,2013-05-10 03:22:00,
2013-05-09 20:27:00,68.9,54.0,29.53,SW,225,0.0,3.0,59,0.00,,,0.00,meteohub,2013-05-10 03:27:00,
2013-05-09 20:32:00,68.4,54.0,29.53,SW,225,1.0,3.0,60,0.00,,,0.00,meteohub,2013-05-10 03:32:00,
2013-05-09 20:37:00,68.0,54.0,29.53,SW,225,2.0,2.0,61,0.00,,,0.00,meteohub,2013-05-10 03:37:00,
2013-05-09 20:42:00,67.8,54.0,29.52,South,180,2.0,2.0,61,0.00,,,0.00,meteohub,2013-05-10 03:42:00,
2013-05-09 20:47:00,68.0,54.0,29.52,SW,225,1.0,2.0,61,0.00,,,0.00,meteohub,2013-05-10 03:47:00,
2013-05-09 20:52:00,67.6,53.8,29.53,SW,225,1.0,2.0,61,0.00,,,0.00,meteohub,2013-05-10 03:52:00,
2013-05-09 20:57:00,66.9,53.4,29.53,SW,225,1.0,2.0,62,0.00,,,0.00,meteohub,2013-05-10 03:57:00,
2013-05-09 21:01:00,66.4,53.8,29.53,SW,225,2.0,2.0,64,0.00,,,0.00,meteohub,2013-05-10 04:01:00,
2013-05-09 21:02:00,66.4,53.8,29.53,SW,225,2.0,2.0,64,0.00,,,0.00,meteohub,2013-05-10 04:02:00,
2013-05-09 21:05:00,66.2,53.6,29.53,SW,225,2.0,2.0,64,0.00,,,0.00,meteohub,2013-05-10 04:05:00,
2013-05-09 21:06:00,66.0,53.4,29.53,SW,225,2.0,2.0,64,0.00,,,0.00,meteohub,2013-05-10 04:06:00,
2013-05-09 21:11:00,65.8,53.8,29.54,SW,225,2.0,2.0,65,0.00,,,0.00,meteohub,2013-05-10 04:11:00,
2013-05-09 21:16:00,65.7,53.6,29.54,SW,225,3.0,3.0,65,0.00,,,0.00,meteohub,2013-05-10 04:16:00,
2013-05-09 21:21:00,65.7,53.6,29.54,SW,225,3.0,3.0,65,0.00,,,0.00,meteohub,2013-05-10 04:21:00,
2013-05-09 21:26:00,65.7,53.6,29.54,SW,225,3.0,3.0,65,0.00,,,0.00,meteohub,2013-05-10 04:26:00,
2013-05-09 21:31:00,65.7,53.2,29.54,SW,225,2.0,5.0,64,0.00,,,0.00,meteohub,2013-05-10 04:31:00,
2013-05-09 21:37:00,65.5,53.1,29.54,South,180,2.0,5.0,64,0.00,,,0.00,meteohub,2013-05-10 04:37:00,
2013-05-09 21:42:00,65.1,53.1,29.54,NE,45,0.0,5.0,65,0.00,,,0.00,meteohub,2013-05-10 04:42:00,
2013-05-09 21:47:00,64.6,52.9,29.55,SW,225,0.0,3.0,66,0.00,,,0.00,meteohub,2013-05-10 04:47:00,
2013-05-09 21:52:00,64.2,53.1,29.54,SW,225,1.0,3.0,67,0.00,,,0.00,meteohub,2013-05-10 04:52:00,
2013-05-09 21:57:00,64.0,52.9,29.54,SW,225,2.0,2.0,67,0.00,,,0.00,meteohub,2013-05-10 04:57:00,
2013-05-09 22:02:00,63.9,53.1,29.54,SW,225,2.0,4.0,68,0.00,,,0.00,meteohub,2013-05-10 05:02:00,
2013-05-09 22:07:00,63.5,53.1,29.54,SW,225,2.0,4.0,69,0.00,,,0.00,meteohub,2013-05-10 05:07:00,
2013-05-09 22:12:00,63.5,53.1,29.55,SW,225,2.0,4.0,69,0.00,,,0.00,meteohub,2013-05-10 05:12:00,
2013-05-09 22:17:00,63.3,53.4,29.55,SW,225,2.0,3.0,70,0.00,,,0.00,meteohub,2013-05-10 05:17:00,
2013-05-09 22:22:00,63.3,53.1,29.55,SW,225,1.0,3.0,69,0.00,,,0.00,meteohub,2013-05-10 05:22:00,
2013-05-09 22:27:00,63.3,53.1,29.55,SW,225,1.0,3.0,69,0.00,,,0.00,meteohub,2013-05-10 05:27:00,
2013-05-09 22:32:00,63.1,53.2,29.55,SW,225,1.0,2.0,70,0.00,,,0.00,meteohub,2013-05-10 05:32:00,
2013-05-09 22:37:00,63.0,53.1,29.55,SW,225,1.0,2.0,70,0.00,,,0.00,meteohub,2013-05-10 05:37:00,
2013-05-09 22:42:00,62.8,53.2,29.55,SW,225,2.0,2.0,71,0.00,,,0.00,meteohub,2013-05-10 05:42:00,
2013-05-09 22:47:00,62.2,53.1,29.55,SW,225,2.0,2.0,72,0.00,,,0.00,meteohub,2013-05-10 05:47:00,
2013-05-09 22:52:00,62.1,53.2,29.55,SW,225,4.0,4.0,73,0.00,,,0.00,meteohub,2013-05-10 05:52:00,
2013-05-09 22:57:00,62.1,53.2,29.55,SW,225,3.0,4.0,73,0.00,,,0.00,meteohub,2013-05-10 05:57:00,
2013-05-09 23:02:00,61.9,53.1,29.55,SW,225,2.0,4.0,73,0.00,,,0.00,meteohub,2013-05-10 06:02:00,
2013-05-09 23:07:00,61.7,53.2,29.56,SW,225,2.0,4.0,74,0.00,,,0.00,meteohub,2013-05-10 06:07:00,
2013-05-09 23:12:00,61.5,53.2,29.55,SW,225,3.0,4.0,74,0.00,,,0.00,meteohub,2013-05-10 06:12:00,
2013-05-09 23:17:00,61.7,52.9,29.56,SW,225,2.0,4.0,73,0.00,,,0.00,meteohub,2013-05-10 06:17:00,
2013-05-09 23:22:00,61.7,52.9,29.56,SW,225,2.0,3.0,73,0.00,,,0.00,meteohub,2013-05-10 06:22:00,
2013-05-09 23:27:00,61.9,53.1,29.56,SW,225,2.0,3.0,73,0.00,,,0.00,meteohub,2013-05-10 06:27:00,
2013-05-09 23:32:00,62.1,53.2,29.55,SW,225,2.0,2.0,73,0.00,,,0.00,meteohub,2013-05-10 06:32:00,
2013-05-09 23:37:00,62.1,53.2,29.56,SW,225,2.0,2.0,73,0.00,,,0.00,meteohub,2013-05-10 06:37:00,
2013-05-09 23:42:00,62.1,53.2,29.55,SW,225,2.0,2.0,73,0.00,,,0.00,meteohub,2013-05-10 06:42:00,
2013-05-09 23:47:00,62.2,53.1,29.56,SW,225,2.0,2.0,72,0.00,,,0.00,meteohub,2013-05-10 06:47:00,
2013-05-09 23:52:00,62.2,53.1,29.55,SW,225,2.0,2.0,72,0.00,,,0.00,meteohub,2013-05-10 06:52:00,
2013-05-09 23:57:00,62.2,53.1,29.56,SW,225,0.0,2.0,72,0.00,,,0.00,meteohub,2013-05-10 06:57:00,